Time;durP1;ratioP1;P1;durP2;ratioP2;P2;SDS_P1;SDS_P2;PMS_P1;PMS_P2;Temp;Humidity;BMP_temperature;BMP_pressure;BME280_temperature;BME280_humidity;BME280_pressure;Samples;Min_cycle;Max_cycle;Signal;HPM_P1;HPM_P2
2022/08/11 00:00:00;;;;;;;4.70;1.20;;;;;;;24.76;43.87;100765.09;4997307;28;20145;-83
2022/08/11 00:02:34;;;;;;;2.88;1.15;;;;;;;24.70;44.99;100769.66;4997566;28;20114;-83
2022/08/11 00:05:16;;;;;;;5.22;1.48;;;;;;;24.47;45.67;100779.84;4997733;28;20030;-80
2022/08/11 00:07:45;;;;;;;5.68;2.03;;;;;;;24.02;46.68;100767.16;4981157;28;20093;-83
2022/08/11 00:10:13;;;;;;;6.10;1.98;;;;;;;23.87;47.25;100764.19;4998335;28;20045;-82
2022/08/11 00:12:41;;;;;;;5.60;2.38;;;;;;;23.61;47.83;100781.00;4998088;28;20034;-82
2022/08/11 00:15:07;;;;;;;5.85;3.22;;;;;;;23.38;48.98;100775.66;4997606;28;20034;-83
2022/08/11 00:17:34;;;;;;;9.98;3.55;;;;;;;23.12;49.91;100769.72;4997960;28;20134;-81
2022/08/11 00:20:05;;;;;;;8.45;3.45;;;;;;;23.05;50.12;100770.91;4998131;28;20038;-82
2022/08/11 00:22:31;;;;;;;11.02;3.63;;;;;;;23.17;49.41;100775.22;4997639;28;20073;-81
2022/08/11 00:24:59;;;;;;;6.60;3.30;;;;;;;23.10;50.02;100774.53;4996421;28;20034;-83
2022/08/11 00:27:35;;;;;;;9.57;2.55;;;;;;;23.12;50.19;100771.59;4995714;28;20037;-85
2022/08/11 00:30:04;;;;;;;9.73;3.25;;;;;;;23.22;49.97;100781.81;4996218;28;20034;-84
2022/08/11 00:32:30;;;;;;;11.45;4.00;;;;;;;23.17;50.72;100777.09;4995854;28;20077;-84
2022/08/11 00:34:59;;;;;;;13.27;3.28;;;;;;;23.36;50.04;100783.19;4995728;28;20030;-84
2022/08/11 00:37:25;;;;;;;7.32;2.97;;;;;;;23.23;50.57;100775.34;4997293;28;20030;-83
2022/08/11 00:39:54;;;;;;;15.48;3.40;;;;;;;23.11;50.95;100770.78;4996018;28;20027;-82
2022/08/11 00:42:28;;;;;;;12.88;4.47;;;;;;;23.13;51.21;100775.94;4997802;28;20034;-83
2022/08/11 00:45:03;;;;;;;15.73;3.63;;;;;;;22.99;51.36;100767.28;4995977;28;20096;-83
2022/08/11 00:47:32;;;;;;;9.07;3.83;;;;;;;23.05;51.11;100774.44;4996233;28;20038;-82
2022/08/11 00:50:07;;;;;;;13.43;3.78;;;;;;;23.04;51.34;100775.47;4977995;28;20046;-84
2022/08/11 00:53:04;;;;;;;8.90;3.58;;;;;;;23.09;51.43;100772.06;4994697;28;20041;-84
2022/08/11 00:56:17;;;;;;;8.80;4.05;;;;;;;22.76;53.08;100771.88;4995308;28;20369;-83
2022/08/11 00:58:58;;;;;;;10.38;3.78;;;;;;;22.65;53.59;100770.78;4995520;28;20041;-84
2022/08/11 01:01:44;;;;;;;9.73;4.15;;;;;;;22.41;54.69;100767.25;4995302;28;20038;-84
2022/08/11 01:04:42;;;;;;;11.98;4.60;;;;;;;22.42;55.22;100759.97;4977608;28;20468;-85
2022/08/11 01:07:34;;;;;;;14.13;5.03;;;;;;;22.22;57.03;100760.28;4958312;28;20140;-85
2022/08/11 01:10:18;;;;;;;10.80;4.20;;;;;;;22.10;57.65;100763.00;4994561;28;20472;-84
2022/08/11 01:13:03;;;;;;;9.73;4.32;;;;;;;22.02;58.48;100760.59;4994341;28;20121;-84
2022/08/11 01:16:06;;;;;;;15.18;4.32;;;;;;;21.95;59.05;100765.28;4994450;28;20038;-83
2022/08/11 01:18:43;;;;;;;;;;;;;;;21.92;59.09;100765.75;4994583;28;20034;-84
2022/08/11 01:21:46;;;;;;;9.75;3.65;;;;;;;21.94;59.44;100766.31;4994176;28;20431;-85
2022/08/11 01:24:41;;;;;;;6.55;3.53;;;;;;;21.96;59.38;100761.53;4994306;28;20046;-84
2022/08/11 01:27:19;;;;;;;10.45;3.63;;;;;;;21.89;60.25;100766.22;4993887;28;20046;-85
2022/08/11 01:29:50;;;;;;;9.88;3.28;;;;;;;21.87;60.23;100768.28;4993980;28;20070;-83
2022/08/11 01:32:44;;;;;;;10.30;2.93;;;;;;;21.88;60.65;100769.91;4993894;28;20054;-85
2022/08/11 01:35:20;;;;;;;9.25;3.20;;;;;;;21.86;61.04;100766.63;4993891;28;20034;-84
2022/08/11 01:38:04;;;;;;;5.35;2.67;;;;;;;21.83;62.19;100767.09;4993757;28;20183;-84
2022/08/11 01:41:00;;;;;;;7.82;2.90;;;;;;;21.97;61.57;100773.16;4994102;28;20046;-84
2022/08/11 01:46:34;;;;;;;5.80;2.47;;;;;;;22.03;60.90;100775.75;4957492;28;20069;-85
2022/08/11 01:49:14;;;;;;;5.07;2.42;;;;;;;22.05;60.27;100781.75;4976484;28;20037;-85
2022/08/11 01:51:52;;;;;;;8.55;2.50;;;;;;;22.01;60.78;100785.94;4993729;28;20046;-84
2022/08/11 01:54:26;;;;;;;8.57;2.50;;;;;;;22.05;60.57;100791.72;4993676;28;20034;-85
2022/08/11 01:57:25;;;;;;;4.18;1.80;;;;;;;22.19;59.64;100784.22;4976139;28;20034;-84
2022/08/11 02:00:01;;;;;;;9.82;2.45;;;;;;;22.04;60.19;100790.09;4993694;28;20034;-85
2022/08/11 02:02:46;;;;;;;7.63;2.45;;;;;;;21.99;60.23;100782.66;4993431;28;20035;-84
2022/08/11 02:05:39;;;;;;;12.90;2.30;;;;;;;22.13;59.47;100784.13;4976211;28;20114;-84
2022/08/11 02:08:20;;;;;;;3.97;1.95;;;;;;;22.10;60.46;100779.19;4993556;28;20032;-85
2022/08/11 02:13:47;;;;;;;5.60;2.13;;;;;;;22.08;60.41;100781.28;4993534;28;20057;-86
2022/08/11 02:16:23;;;;;;;3.97;2.30;;;;;;;21.92;61.35;100771.13;4993791;28;20054;-84
2022/08/11 02:25:00;;;;;;;7.38;2.38;;;;;;;21.55;66.75;100764.16;5022199;28;20041;-85
2022/08/11 02:27:55;;;;;;;5.23;2.07;;;;;;;21.48;67.87;100763.41;5002014;28;20077;-83
2022/08/11 02:30:26;;;;;;;4.60;2.50;;;;;;;21.47;67.86;100757.22;4943743;28;20810;-84
2022/08/11 02:33:22;;;;;;;12.88;2.22;;;;;;;21.43;68.46;100752.50;4997018;28;20105;-84
2022/08/11 02:36:38;;;;;;;4.30;1.95;;;;;;;21.55;67.48;100758.75;4997253;28;20034;-85
2022/08/11 02:39:13;;;;;;;10.70;2.67;;;;;;;21.50;67.78;100750.53;4936896;29;20042;-84
2022/08/11 02:42:21;;;;;;;7.47;2.15;;;;;;;21.59;67.02;100760.78;4936812;29;20051;-84
2022/08/11 02:44:52;;;;;;;3.88;1.95;;;;;;;21.32;66.23;100747.88;4937115;29;20170;-85
2022/08/11 02:50:51;;;;;;;9.52;2.30;;;;;;;21.30;68.01;100747.28;4936713;29;20154;-85
2022/08/11 02:53:29;;;;;;;3.95;1.88;;;;;;;21.49;67.95;100755.13;4936862;29;20039;-84
2022/08/11 02:56:27;;;;;;;8.48;1.83;;;;;;;21.58;67.09;100744.81;4936895;29;20151;-84
2022/08/11 03:02:26;;;;;;;6.78;2.13;;;;;;;21.49;65.83;100738.94;4937737;29;20099;-85
2022/08/11 03:05:00;;;;;;;5.80;1.67;;;;;;;21.37;67.48;100735.38;4942929;29;20424;-85
2022/08/11 03:07:51;;;;;;;6.97;2.10;;;;;;;21.22;68.10;100736.78;4936451;29;20604;-84
2022/08/11 03:10:35;;;;;;;4.15;2.20;;;;;;;21.24;67.72;100740.09;4966002;28;20066;-86
2022/08/11 03:16:53;;;;;;;7.20;2.17;;;;;;;21.16;68.50;100732.31;4986631;28;20085;-85
2022/08/11 03:19:27;;;;;;;10.05;2.00;;;;;;;21.27;67.96;100729.69;4995796;28;20050;-85
2022/08/11 03:22:30;;;;;;;5.57;2.08;;;;;;;21.23;68.43;100722.28;4978933;28;20106;-85
2022/08/11 03:25:21;;;;;;;6.93;2.30;;;;;;;21.23;68.64;100720.41;4978785;28;20053;-85
2022/08/11 03:28:09;;;;;;;7.10;2.00;;;;;;;21.22;68.71;100720.63;4978670;28;20038;-85
2022/08/11 03:30:51;;;;;;;7.38;2.20;;;;;;;21.16;69.70;100719.66;4996229;28;20062;-85
2022/08/11 03:36:18;;;;;;;4.68;2.25;;;;;;;20.91;72.22;100719.69;4995884;28;20674;-84
2022/08/11 03:39:02;;;;;;;6.00;2.17;;;;;;;20.80;73.37;100719.63;4978612;28;20040;-85
2022/08/11 03:41:44;;;;;;;6.63;2.72;;;;;;;20.79;73.60;100728.75;4995808;28;20042;-86
2022/08/11 03:44:24;;;;;;;2.90;2.33;;;;;;;20.84;73.13;100729.75;4996038;28;20034;-86
2022/08/11 03:47:10;;;;;;;10.93;2.40;;;;;;;20.97;72.10;100729.59;4996126;28;20085;-84
2022/08/11 03:49:45;;;;;;;5.72;2.47;;;;;;;20.96;72.01;100727.94;4995831;28;20038;-85
2022/08/11 03:52:20;;;;;;;9.52;2.50;;;;;;;20.84;73.13;100729.75;4998211;28;20502;-84
2022/08/11 03:55:06;;;;;;;3.92;2.00;;;;;;;20.67;74.61;100726.00;4995886;28;20046;-84
2022/08/11 03:58:19;;;;;;;5.32;1.88;;;;;;;20.68;75.09;100730.34;4996047;28;20094;-86
2022/08/11 04:01:04;;;;;;;2.85;1.67;;;;;;;20.72;75.16;100739.59;4919032;29;20048;-84
2022/08/11 04:04:03;;;;;;;8.20;2.00;;;;;;;20.57;76.12;100736.47;4990272;28;20561;-85
2022/08/11 04:06:54;;;;;;;6.00;2.03;;;;;;;20.57;77.01;100744.53;4995869;28;20073;-87
2022/08/11 04:09:23;;;;;;;7.75;1.80;;;;;;;20.43;78.33;100738.44;4995297;28;20042;-84
2022/08/11 04:11:54;;;;;;;7.00;2.03;;;;;;;20.38;78.26;100740.97;4995419;28;20031;-85
2022/08/11 04:17:59;;;;;;;6.78;2.28;;;;;;;20.44;78.44;100740.09;4995424;28;20096;-83
2022/08/11 04:21:02;;;;;;;6.78;1.98;;;;;;;20.48;78.59;100740.47;4995358;28;20109;-87
2022/08/11 04:24:03;;;;;;;7.03;2.28;;;;;;;20.43;79.07;100738.44;4995343;28;20034;-84
2022/08/11 04:26:32;;;;;;;5.40;2.10;;;;;;;20.44;79.32;100739.28;4995161;28;20041;-84
2022/08/11 04:29:33;;;;;;;4.72;2.03;;;;;;;20.43;78.86;100740.31;4995090;28;20026;-86
2022/08/11 04:32:36;;;;;;;6.97;2.20;;;;;;;20.51;77.74;100756.19;4967424;28;20349;-88
2022/08/11 04:35:24;;;;;;;3.55;2.10;;;;;;;20.63;76.85;100754.41;4994161;28;20400;-87
2022/08/11 04:38:11;;;;;;;3.90;2.17;;;;;;;20.85;76.26;100758.31;4997098;28;20114;-86
2022/08/11 04:40:55;;;;;;;5.90;2.38;;;;;;;20.76;73.92;100765.06;4996595;28;20169;-85
2022/08/11 04:43:49;;;;;;;12.10;2.72;;;;;;;20.94;73.08;100766.97;4994907;28;20084;-83
2022/08/11 04:46:25;;;;;;;5.35;2.20;;;;;;;21.02;71.84;100769.34;4995105;28;20133;-87
2022/08/11 05:02:08;;;;;;;6.25;3.25;;;;;;;21.28;72.34;100792.53;4997765;28;20082;-86
2022/08/11 05:07:52;;;;;;;10.18;3.58;;;;;;;21.36;70.68;100786.81;5003742;28;20133;-84
2022/08/11 05:10:52;;;;;;;14.20;3.95;;;;;;;21.32;71.69;100791.00;5012763;28;20084;-85
2022/08/11 05:36:38;;;;;;;13.40;4.53;;;;;;;21.50;71.35;100789.13;4995649;28;20437;-88
2022/08/11 05:58:42;;;;;;;12.60;3.70;;;;;;;23.36;62.72;100792.13;4997274;28;20034;-87
2022/08/11 06:01:09;;;;;;;10.88;3.42;;;;;;;23.54;61.91;100791.97;4994081;28;20054;-88
2022/08/11 06:06:21;;;;;;;9.65;4.40;;;;;;;23.56;62.77;100789.03;4977365;28;20114;-87
2022/08/11 06:08:47;;;;;;;12.20;4.10;;;;;;;23.55;64.48;100792.81;4997331;28;20042;-90
2022/08/11 06:11:16;;;;;;;14.52;3.70;;;;;;;23.84;64.56;100785.50;4997523;28;20045;-91
2022/08/11 06:13:46;;;;;;;13.65;5.05;;;;;;;23.85;63.71;100795.28;5000668;28;20080;-89
2022/08/11 06:16:14;;;;;;;15.20;4.13;;;;;;;24.36;62.07;100794.31;4979155;28;20511;-89
2022/08/11 06:18:46;;;;;;;12.65;4.13;;;;;;;24.93;58.27;100792.22;5002035;28;20045;-87
2022/08/11 06:21:14;;;;;;;10.15;3.00;;;;;;;24.85;57.90;100796.19;5015695;28;20046;-88
2022/08/11 06:23:46;;;;;;;8.07;2.75;;;;;;;25.23;57.45;100786.38;5015934;28;20019;-86
2022/08/11 06:26:14;;;;;;;6.97;2.90;;;;;;;25.08;56.70;100787.84;5009563;28;20015;-90
2022/08/11 06:28:56;;;;;;;16.80;2.75;;;;;;;25.04;57.72;100792.13;4995331;28;20065;-92
2022/08/11 06:31:58;;;;;;;7.75;3.30;;;;;;;25.02;57.84;100788.81;5000801;28;20026;-93
2022/08/11 06:38:09;;;;;;;9.00;2.20;;;;;;;25.66;54.08;100800.81;5008512;28;20041;-89
2022/08/11 06:44:43;;;;;;;7.40;2.70;;;;;;;25.83;52.23;100792.56;5015751;28;20046;-85
2022/08/11 06:53:01;;;;;;;10.52;2.67;;;;;;;26.56;50.64;100799.22;4998178;28;20038;-86
2022/08/11 07:01:18;;;;;;;9.10;3.20;;;;;;;26.56;51.09;100788.34;5011152;28;20089;-85
2022/08/11 07:03:47;;;;;;;9.70;2.92;;;;;;;27.24;49.52;100790.97;4992975;28;20030;-90
2022/08/11 07:06:42;;;;;;;12.55;2.90;;;;;;;28.16;47.16;100806.53;4987797;28;20113;-88
2022/08/11 07:16:01;;;;;;;9.82;2.72;;;;;;;28.50;46.43;100795.09;5013856;28;20038;-88
2022/08/11 07:30:08;;;;;;;12.50;2.63;;;;;;;28.73;47.38;100791.84;4988575;28;20469;-87
2022/08/11 07:32:42;;;;;;;6.47;2.15;;;;;;;29.24;45.52;100796.03;4997034;28;20042;-86
2022/08/11 07:35:12;;;;;;;7.90;2.67;;;;;;;28.71;47.66;100788.53;4996484;28;20157;-86
2022/08/11 07:37:41;;;;;;;7.80;2.90;;;;;;;27.94;49.41;100800.47;4996425;28;20391;-88
2022/08/11 07:40:11;;;;;;;7.90;2.72;;;;;;;28.02;50.29;100797.22;4996006;28;20034;-89
2022/08/11 07:42:37;;;;;;;12.35;3.20;;;;;;;28.13;50.83;100796.19;4996392;28;20030;-89
2022/08/11 07:53:29;;;;;;;6.30;2.53;;;;;;;29.14;47.07;100787.88;4962162;28;20399;-87
2022/08/11 07:55:57;;;;;;;13.27;2.80;;;;;;;29.60;46.17;100790.44;4977902;28;20373;-90
2022/08/11 08:18:01;;;;;;;9.07;2.50;;;;;;;30.20;42.48;100787.34;4995088;28;20123;-88
2022/08/11 08:20:33;;;;;;;12.70;2.95;;;;;;;30.99;41.67;100786.09;4990605;28;20049;-84
2022/08/11 08:23:01;;;;;;;7.32;2.10;;;;;;;30.76;42.30;100786.88;4995008;28;20065;-85
2022/08/11 08:25:35;;;;;;;16.08;2.10;;;;;;;30.46;41.13;100787.19;4989501;28;20507;-85
2022/08/11 08:28:12;;;;;;;8.90;2.40;;;;;;;29.98;42.00;100781.50;4966458;28;20030;-87
2022/08/11 08:30:46;;;;;;;4.13;1.90;;;;;;;30.90;39.82;100787.81;4973660;28;20043;-86
2022/08/11 08:33:23;;;;;;;13.02;2.20;;;;;;;30.51;40.30;100784.38;4990174;28;20511;-88
2022/08/11 08:36:11;;;;;;;5.90;2.33;;;;;;;30.89;39.40;100791.66;4958862;28;20500;-85
2022/08/11 08:38:55;;;;;;;14.02;2.50;;;;;;;31.23;39.40;100780.63;4973276;28;20034;-83
2022/08/11 08:41:26;;;;;;;9.27;2.50;;;;;;;31.15;39.81;100784.03;4985349;28;20065;-86
2022/08/11 08:43:56;;;;;;;8.68;2.00;;;;;;;31.31;39.09;100784.63;4983136;28;20090;-84
2022/08/11 08:46:36;;;;;;;4.65;1.83;;;;;;;31.19;39.60;100780.38;4962829;28;20039;-90
2022/08/11 08:49:04;;;;;;;6.97;1.67;;;;;;;31.32;39.37;100784.38;4978676;28;20400;-91
2022/08/11 08:51:39;;;;;;;7.03;2.38;;;;;;;30.97;39.56;100782.84;4964908;28;20043;-88
2022/08/11 08:54:09;;;;;;;3.58;1.52;;;;;;;31.25;38.95;100781.94;4981878;28;20039;-90
2022/08/11 08:56:40;;;;;;;7.10;2.20;;;;;;;31.04;40.25;100777.84;4978939;28;20170;-84
2022/08/11 08:59:07;;;;;;;6.65;1.88;;;;;;;30.70;40.19;100788.84;4976566;28;20141;-88
2022/08/11 09:01:50;;;;;;;6.07;1.70;;;;;;;31.13;40.30;100776.09;4977547;28;20046;-88
2022/08/11 09:04:18;;;;;;;4.93;1.85;;;;;;;30.91;39.73;100778.50;4978403;28;20074;-89
2022/08/11 09:06:46;;;;;;;7.90;1.77;;;;;;;30.30;39.74;100782.88;4958642;28;20042;-89
2022/08/11 09:09:13;;;;;;;6.32;1.70;;;;;;;30.05;39.88;100781.19;4975996;28;20031;-89
2022/08/11 09:11:52;;;;;;;8.18;2.30;;;;;;;30.61;40.32;100776.09;4957635;28;20129;-87
2022/08/11 09:14:20;;;;;;;4.18;1.77;;;;;;;30.91;39.22;100773.03;4974993;28;20488;-88
2022/08/11 09:16:48;;;;;;;4.10;1.40;;;;;;;30.92;37.99;100774.69;4974922;28;20083;-89
2022/08/11 09:19:16;;;;;;;7.90;1.77;;;;;;;31.38;37.41;100766.75;4974984;28;20038;-86
2022/08/11 09:26:58;;;;;;;6.20;1.88;;;;;;;32.05;35.30;100771.00;4958061;28;20157;-88
2022/08/11 09:27:22;;;;;;;6.97;1.80;;;;;;;32.68;34.78;100765.03;4958412;28;20046;-87
2022/08/11 09:29:49;;;;;;;9.07;2.30;;;;;;;32.04;35.47;100765.81;4975019;28;20038;-88
2022/08/11 09:32:20;;;;;;;9.07;2.10;;;;;;;32.24;35.09;100769.06;4974857;28;20392;-87
2022/08/11 09:34:46;;;;;;;7.00;1.73;;;;;;;32.78;33.32;100769.53;4975095;28;20061;-87
2022/08/11 09:45:33;;;;;;;5.28;1.48;;;;;;;33.00;31.94;100764.13;4976323;28;20031;-87
2022/08/11 09:48:00;;;;;;;3.40;1.67;;;;;;;32.82;31.92;100760.34;4942576;28;20081;-87
2022/08/11 09:50:26;;;;;;;12.27;1.73;;;;;;;33.08;31.90;100750.50;4958050;28;20027;-87
2022/08/11 09:52:53;;;;;;;9.43;1.33;;;;;;;32.32;32.73;100747.56;4975769;28;20053;-85
2022/08/11 09:55:19;;;;;;;7.88;1.83;;;;;;;31.86;33.51;100751.00;4987422;28;20483;-85
2022/08/11 10:00:36;;;;;;;5.15;1.60;;;;;;;32.52;31.64;100752.66;4973837;28;20054;-88
2022/08/11 10:03:08;;;;;;;6.22;1.77;;;;;;;32.69;30.99;100741.94;4974275;28;20034;-87
2022/08/11 10:08:22;;;;;;;7.35;1.83;;;;;;;32.21;31.54;100736.75;4993619;28;19932;-87
2022/08/11 10:10:48;;;;;;;9.70;1.92;;;;;;;32.45;31.83;100730.31;4993886;28;20121;-87
2022/08/11 10:13:24;;;;;;;9.25;2.25;;;;;;;32.40;30.31;100733.13;4993334;28;20096;-87
2022/08/11 10:15:56;;;;;;;5.88;1.52;;;;;;;32.69;30.64;100726.28;4993911;28;20053;-87
2022/08/11 10:18:41;;;;;;;8.65;1.50;;;;;;;32.97;29.88;100726.28;4994196;28;20038;-87
2022/08/11 10:21:13;;;;;;;5.13;1.95;;;;;;;33.29;29.30;100726.19;4993804;28;20042;-88
2022/08/11 10:34:46;;;;;;;4.68;1.40;;;;;;;34.26;27.69;100720.88;4982647;28;20035;-87
2022/08/11 10:37:13;;;;;;;9.50;1.60;;;;;;;34.38;26.51;100716.72;4980545;28;20122;-85
2022/08/11 10:39:39;;;;;;;5.57;1.67;;;;;;;34.42;25.71;100709.47;4978636;28;20114;-91
2022/08/11 10:44:53;;;;;;;3.40;1.50;;;;;;;34.69;25.84;100706.53;4981416;28;20492;-89
2022/08/11 10:47:35;;;;;;;3.45;1.40;;;;;;;34.27;26.01;100705.97;4961089;28;20038;-88
2022/08/11 11:01:37;;;;;;;2.13;1.00;;;;;;;34.28;24.65;100684.78;4990424;28;20037;-89
2022/08/11 11:04:16;;;;;;;5.43;1.08;;;;;;;34.28;24.89;100685.59;5001443;28;20053;-88
2022/08/11 11:07:12;;;;;;;5.82;1.10;;;;;;;33.60;25.50;100696.09;4985572;28;20054;-87
2022/08/11 11:09:49;;;;;;;4.35;1.40;;;;;;;33.44;25.22;100675.56;4978359;28;20089;-87
2022/08/11 11:18:08;;;;;;;2.83;1.35;;;;;;;33.33;25.51;100672.25;4968540;28;20800;-86
2022/08/11 11:20:50;;;;;;;3.95;1.35;;;;;;;33.20;25.01;100673.91;4982704;28;20440;-86
2022/08/11 11:23:31;;;;;;;6.85;1.15;;;;;;;33.15;25.11;100657.53;4977349;28;20030;-84
2022/08/11 11:26:19;;;;;;;7.03;1.38;;;;;;;33.61;25.60;100662.00;4977397;28;20045;-89
2022/08/11 11:29:08;;;;;;;3.63;1.20;;;;;;;33.63;25.80;100654.25;4952588;28;20077;-88
2022/08/11 11:31:53;;;;;;;9.25;1.75;;;;;;;33.45;26.18;100667.00;4996040;28;20169;-87
2022/08/11 11:34:41;;;;;;;7.45;1.98;;;;;;;33.08;26.40;100661.78;4996336;28;20109;-86
2022/08/11 11:37:12;;;;;;;4.40;1.67;;;;;;;32.97;27.43;100660.38;4996173;28;20109;-86
2022/08/11 11:39:38;;;;;;;5.07;1.70;;;;;;;33.19;26.56;100663.22;4987899;28;20467;-87
2022/08/11 11:42:09;;;;;;;4.00;1.60;;;;;;;32.86;27.42;100659.78;4960085;28;20039;-85
2022/08/11 11:44:42;;;;;;;4.03;1.52;;;;;;;32.96;27.30;100647.78;4959768;28;20040;-84
2022/08/11 11:47:10;;;;;;;11.27;2.10;;;;;;;32.51;28.30;100633.03;4980343;28;20046;-88
2022/08/11 11:49:39;;;;;;;6.75;1.70;;;;;;;32.53;28.66;100633.53;4995464;28;20173;-84
2022/08/11 11:52:07;;;;;;;7.68;1.67;;;;;;;32.38;28.37;100631.13;4977897;28;20035;-86
2022/08/11 11:54:35;;;;;;;6.22;1.83;;;;;;;31.93;29.27;100636.28;4970673;28;20044;-84
2022/08/11 12:02:36;;;;;;;4.07;1.42;;;;;;;30.89;29.83;100624.69;4990394;28;20385;-86
2022/08/11 12:05:06;;;;;;;6.80;1.67;;;;;;;31.07;30.44;100618.44;4995292;28;20129;-90
2022/08/11 12:10:17;;;;;;;5.93;1.83;;;;;;;31.41;28.85;100611.91;4989785;28;20109;-86
2022/08/11 12:15:29;;;;;;;6.30;2.00;;;;;;;31.45;30.36;100607.47;4989447;28;20035;-89
2022/08/11 12:17:56;;;;;;;6.38;1.70;;;;;;;31.38;30.59;100618.00;4990237;28;20057;-82
2022/08/11 12:20:22;;;;;;;6.80;2.08;;;;;;;31.33;29.87;100604.38;4974553;28;20125;-83
2022/08/11 12:28:21;;;;;;;10.32;1.52;;;;;;;31.10;30.14;100597.88;4988704;28;20515;-83
2022/08/11 12:30:49;;;;;;;18.50;2.30;;;;;;;31.47;29.63;100594.28;4973147;28;20053;-82
2022/08/11 12:33:16;;;;;;;5.75;1.52;;;;;;;31.11;29.98;100597.59;4990586;28;20137;-85
2022/08/11 12:35:42;;;;;;;9.38;1.98;;;;;;;31.16;29.52;100596.69;4992053;28;20027;-84
2022/08/11 12:38:08;;;;;;;2.75;1.20;;;;;;;31.07;29.20;100596.53;4988682;28;20161;-83
2022/08/11 12:46:18;;;;;;;5.97;1.58;;;;;;;30.89;29.56;100575.41;4994959;28;20038;-82
2022/08/11 12:51:58;;;;;;;8.93;1.83;;;;;;;30.63;29.88;100585.06;5009270;28;19906;-88
2022/08/11 12:54:34;;;;;;;9.02;1.58;;;;;;;30.70;29.05;100580.88;4963087;23;20138;-84
2022/08/11 13:05:19;;;;;;;5.05;1.15;;;;;;;30.88;28.81;100554.63;4968550;28;20046;-84
2022/08/11 13:07:46;;;;;;;7.00;1.30;;;;;;;30.79;29.04;100548.22;4957980;28;20071;-83
2022/08/11 13:12:46;;;;;;;4.78;1.20;;;;;;;30.92;27.97;100555.69;4967521;28;20485;-81
2022/08/11 13:13:06;;;;;;;3.55;1.25;;;;;;;30.90;28.13;100548.84;4971841;28;20038;-83
2022/08/11 13:15:35;;;;;;;6.85;1.23;;;;;;;30.96;28.97;100540.31;4965216;28;20035;-85
2022/08/11 13:18:02;;;;;;;4.93;1.23;;;;;;;30.87;28.28;100543.97;4964447;28;20067;-87
2022/08/11 13:20:29;;;;;;;2.15;1.35;;;;;;;30.74;28.25;100537.31;4955242;28;20484;-84
2022/08/11 13:22:57;;;;;;;8.10;1.38;;;;;;;30.55;28.45;100536.50;4955898;28;20038;-83
2022/08/11 13:25:25;;;;;;;8.65;5.22;;;;;;;30.71;28.43;100544.19;4957673;28;20039;-86
2022/08/11 13:27:55;;;;;;;5.28;1.30;;;;;;;30.71;28.42;100533.25;4957822;28;20078;-83
2022/08/11 13:33:10;;;;;;;4.60;1.45;;;;;;;30.89;27.78;100517.94;4973112;28;20083;-85
2022/08/11 13:35:38;;;;;;;9.70;1.63;;;;;;;30.76;28.19;100519.47;4962300;28;20039;-82
2022/08/11 13:38:05;;;;;;;5.03;1.50;;;;;;;30.85;27.94;100516.91;4960812;28;20035;-81
2022/08/11 13:40:31;;;;;;;8.10;1.40;;;;;;;30.62;27.75;100510.41;4960996;28;20041;-84
2022/08/11 13:42:58;;;;;;;3.60;1.20;;;;;;;30.61;28.07;100505.22;4986920;28;20065;-78
2022/08/11 13:45:27;;;;;;;3.08;1.15;;;;;;;30.48;28.68;100501.28;4975578;28;20027;-82
2022/08/11 13:47:57;;;;;;;3.40;1.38;;;;;;;30.46;29.06;100497.22;4984761;28;20065;-90
2022/08/11 13:53:11;;;;;;;2.90;1.42;;;;;;;30.65;28.58;100495.31;4992859;28;20046;-83
2022/08/11 13:55:39;;;;;;;2.08;1.00;;;;;;;30.85;27.83;100489.53;4978658;28;20153;-83
2022/08/11 13:58:07;;;;;;;3.42;1.17;;;;;;;30.87;27.62;100479.09;4976395;28;20027;-84
2022/08/11 14:01:10;;;;;;;7.45;1.20;;;;;;;30.76;28.61;100480.34;4976340;28;20046;-82
2022/08/11 14:03:41;;;;;;;7.32;1.05;;;;;;;30.76;28.20;100486.66;4990301;28;20065;-83
2022/08/11 14:06:08;;;;;;;2.33;1.20;;;;;;;30.76;27.68;100483.09;4995901;28;20050;-84
2022/08/11 14:08:37;;;;;;;3.60;1.25;;;;;;;30.71;28.10;100474.97;4997973;28;20038;-84
2022/08/11 14:13:52;;;;;;;7.00;1.67;;;;;;;30.75;27.95;100462.31;4974934;28;20109;-86
2022/08/11 14:16:29;;;;;;;4.32;1.40;;;;;;;30.61;28.04;100473.19;4974194;28;20045;-85
2022/08/11 14:19:00;;;;;;;4.57;1.45;;;;;;;30.45;28.75;100458.13;4974993;28;20200;-89
2022/08/11 14:24:16;;;;;;;3.15;1.42;;;;;;;30.60;28.36;100459.81;4974728;28;20680;-89
2022/08/11 14:26:43;;;;;;;3.03;1.30;;;;;;;30.59;28.92;100447.25;4974633;28;20031;-88
2022/08/11 14:29:12;;;;;;;3.53;1.52;;;;;;;30.71;29.09;100445.69;4974523;28;20438;-87
2022/08/11 14:31:44;;;;;;;4.10;1.50;;;;;;;30.87;29.16;100442.69;4968679;28;20035;-88
2022/08/11 14:34:13;;;;;;;4.40;1.00;;;;;;;31.04;28.15;100448.47;4950337;28;20373;-85
2022/08/11 14:36:43;;;;;;;4.15;1.15;;;;;;;30.99;28.37;100446.63;4974886;28;20039;-80
2022/08/11 14:39:17;;;;;;;4.25;1.40;;;;;;;30.88;28.64;100445.16;4974797;28;20031;-85
2022/08/11 14:47:22;;;;;;;3.70;1.20;;;;;;;30.82;28.94;100435.41;4980428;28;20177;-84
2022/08/11 14:49:48;;;;;;;4.78;1.38;;;;;;;30.69;28.78;100430.69;4978294;28;20480;-88
2022/08/11 14:52:16;;;;;;;5.30;1.40;;;;;;;30.88;28.82;100428.72;4959432;28;20030;-87
2022/08/11 14:57:39;;;;;;;3.70;1.48;;;;;;;30.42;29.62;100436.84;4952598;28;20039;-84
2022/08/11 15:00:08;;;;;;;3.88;1.40;;;;;;;30.51;29.57;100428.75;4960314;28;20035;-82
2022/08/11 15:05:23;;;;;;;4.95;1.48;;;;;;;30.57;29.31;100425.66;4972953;28;20046;-88
2022/08/11 15:07:50;;;;;;;4.22;1.20;;;;;;;30.64;29.09;100411.59;4976171;28;20038;-87
2022/08/11 15:10:18;;;;;;;7.47;1.23;;;;;;;30.55;29.69;100410.66;4964998;28;20038;-86
2022/08/11 15:12:44;;;;;;;3.60;1.33;;;;;;;30.81;28.97;100414.63;4962965;28;20035;-88
2022/08/11 15:17:59;;;;;;;2.78;1.20;;;;;;;30.69;28.92;100408.78;4975151;28;20039;-90
2022/08/11 15:26:12;;;;;;;6.80;1.45;;;;;;;30.89;28.58;100408.44;4959963;28;20113;-86
2022/08/11 15:37:25;;;;;;;9.77;1.25;;;;;;;30.66;29.35;100395.69;4962448;28;20031;-86
2022/08/11 15:46:01;;;;;;;2.00;1.38;;;;;;;30.50;29.29;100386.09;4960657;28;20408;-86
2022/08/11 15:48:34;;;;;;;9.80;1.35;;;;;;;30.53;29.79;100390.97;4975717;28;20480;-87
2022/08/11 15:51:15;;;;;;;6.18;1.20;;;;;;;30.44;29.51;100388.09;4952289;28;20480;-87
2022/08/11 15:54:22;;;;;;;2.70;1.30;;;;;;;30.46;29.48;100387.81;4975152;28;20038;-88
2022/08/11 16:07:10;;;;;;;3.80;1.30;;;;;;;30.55;29.07;100391.50;4996642;28;20058;-81
2022/08/11 16:10:40;;;;;;;4.45;1.40;;;;;;;30.54;29.72;100377.00;4992858;28;20119;-82
2022/08/11 16:16:17;;;;;;;3.47;1.30;;;;;;;30.29;30.06;100376.56;4969191;28;20051;-81
2022/08/11 16:19:41;;;;;;;5.33;1.30;;;;;;;30.29;29.90;100377.38;4993702;28;20047;-84
2022/08/11 16:22:34;;;;;;;1.98;1.00;;;;;;;30.30;29.60;100368.03;4997486;28;20038;-84
2022/08/11 16:25:26;;;;;;;2.55;1.10;;;;;;;30.53;29.33;100366.34;4979043;28;20035;-82
2022/08/11 16:28:13;;;;;;;5.65;1.30;;;;;;;30.63;28.68;100363.44;4981312;28;20047;-82
2022/08/11 16:31:16;;;;;;;2.65;1.33;;;;;;;30.65;29.09;100356.59;4994347;28;20034;-82
2022/08/11 16:33:45;;;;;;;7.00;1.42;;;;;;;30.52;29.75;100362.00;4994942;28;20031;-81
2022/08/11 16:39:50;;;;;;;2.45;1.17;;;;;;;30.28;29.44;100359.34;4994288;28;20066;-85
2022/08/11 16:48:41;;;;;;;5.50;1.40;;;;;;;30.23;30.38;100348.44;5551203;23;20046;-82
2022/08/11 16:51:24;;;;;;;4.13;1.27;;;;;;;30.08;30.38;100341.31;4961025;28;20051;-84
2022/08/11 16:53:59;;;;;;;4.80;1.50;;;;;;;30.08;30.28;100344.03;4994292;28;20035;-83
2022/08/11 16:56:49;;;;;;;2.10;1.10;;;;;;;30.33;30.19;100351.03;4975071;28;20110;-83
2022/08/11 16:59:51;;;;;;;11.50;1.53;;;;;;;30.22;30.47;100347.66;5042571;23;20053;-83
2022/08/11 17:14:54;;;;;;;5.55;1.95;;;;;;;30.07;30.36;100347.88;5010819;28;20042;-82
2022/08/11 17:17:45;;;;;;;2.67;1.67;;;;;;;29.99;30.53;100345.81;4952636;29;20043;-80
2022/08/11 17:20:47;;;;;;;4.60;1.23;;;;;;;30.04;30.40;100342.19;4953479;29;20036;-83
2022/08/11 17:29:17;;;;;;;7.22;1.40;;;;;;;30.01;30.30;100348.25;5027981;23;20065;-81
2022/08/11 17:38:14;;;;;;;9.95;2.05;;;;;;;29.75;31.61;100351.28;5136289;23;20017;-85